sensor_id;sensor_type;location;lat;lon;timestamp;pressure;altitude;pressure_sealevel;temperature
60936;BMP280;46804;51.786;19.520;2023-05-10T00:00:18;156223.72;;;8.06
60936;BMP280;46804;51.786;19.520;2023-05-10T00:04:38;156219.88;;;8.04
60936;BMP280;46804;51.786;19.520;2023-05-10T00:08:39;156187.88;;;7.92
60936;BMP280;46804;51.786;19.520;2023-05-10T00:12:40;156184.03;;;7.90
60936;BMP280;46804;51.786;19.520;2023-05-10T00:16:40;156168.63;;;7.84
60936;BMP280;46804;51.786;19.520;2023-05-10T00:20:41;156162.25;;;7.82
60936;BMP280;46804;51.786;19.520;2023-05-10T00:24:42;156159.69;;;7.81
60936;BMP280;46804;51.786;19.520;2023-05-10T00:28:42;156128.94;;;7.69
60936;BMP280;46804;51.786;19.520;2023-05-10T00:32:43;156111.03;;;7.62
60936;BMP280;46804;51.786;19.520;2023-05-10T00:36:44;156126.41;;;7.68
60936;BMP280;46804;51.786;19.520;2023-05-10T00:40:44;156109.75;;;7.62
60936;BMP280;46804;51.786;19.520;2023-05-10T00:44:45;156111.03;;;7.62
60936;BMP280;46804;51.786;19.520;2023-05-10T00:48:47;156104.63;;;7.60
60936;BMP280;46804;51.786;19.520;2023-05-10T00:52:47;156076.47;;;7.49
60936;BMP280;46804;51.786;19.520;2023-05-10T00:56:48;156062.34;;;7.43
60936;BMP280;46804;51.786;19.520;2023-05-10T01:00:50;156055.97;;;7.41
60936;BMP280;46804;51.786;19.520;2023-05-10T01:04:52;156053.41;;;7.40
60936;BMP280;46804;51.786;19.520;2023-05-10T01:08:52;156059.81;;;7.43
60936;BMP280;46804;51.786;19.520;2023-05-10T01:12:53;156026.53;;;7.30
60936;BMP280;46804;51.786;19.520;2023-05-10T01:16:55;156027.78;;;7.30
60936;BMP280;46804;51.786;19.520;2023-05-10T01:34:07;156002.22;;;7.20
60936;BMP280;46804;51.786;19.520;2023-05-10T01:42:38;155977.88;;;7.11
60936;BMP280;46804;51.786;19.520;2023-05-10T01:46:39;155958.69;;;7.04
60936;BMP280;46804;51.786;19.520;2023-05-10T01:50:43;155962.53;;;7.05
60936;BMP280;46804;51.786;19.520;2023-05-10T01:54:51;155949.72;;;7.00
60936;BMP280;46804;51.786;19.520;2023-05-10T01:58:55;155934.38;;;6.94
60936;BMP280;46804;51.786;19.520;2023-05-10T02:02:57;155919.00;;;6.88
60936;BMP280;46804;51.786;19.520;2023-05-10T02:06:58;155933.13;;;6.94
60936;BMP280;46804;51.786;19.520;2023-05-10T02:10:59;155921.56;;;6.89
60936;BMP280;46804;51.786;19.520;2023-05-10T02:15:04;155904.97;;;6.83
60936;BMP280;46804;51.786;19.520;2023-05-10T02:19:07;155893.41;;;6.78
60936;BMP280;46804;51.786;19.520;2023-05-10T02:23:09;155888.31;;;6.77
60936;BMP280;46804;51.786;19.520;2023-05-10T02:27:11;155880.63;;;6.74
60936;BMP280;46804;51.786;19.520;2023-05-10T02:31:13;155883.22;;;6.75
60936;BMP280;46804;51.786;19.520;2023-05-10T02:35:14;155872.97;;;6.71
60936;BMP280;46804;51.786;19.520;2023-05-10T02:39:18;155870.38;;;6.70
60936;BMP280;46804;51.786;19.520;2023-05-10T02:43:20;155872.97;;;6.71
60936;BMP280;46804;51.786;19.520;2023-05-10T02:47:23;155844.81;;;6.60
60936;BMP280;46804;51.786;19.520;2023-05-10T02:51:25;155852.47;;;6.63
60936;BMP280;46804;51.786;19.520;2023-05-10T02:55:33;155821.78;;;6.51
60936;BMP280;46804;51.786;19.520;2023-05-10T02:59:35;155814.06;;;6.48
60936;BMP280;46804;51.786;19.520;2023-05-10T03:03:36;155839.69;;;6.58
60936;BMP280;46804;51.786;19.520;2023-05-10T03:07:37;155820.50;;;6.50
60936;BMP280;46804;51.786;19.520;2023-05-10T03:11:59;155825.59;;;6.52
60936;BMP280;46804;51.786;19.520;2023-05-10T03:16:10;155814.06;;;6.48
60936;BMP280;46804;51.786;19.520;2023-05-10T03:20:22;155824.31;;;6.52
60936;BMP280;46804;51.786;19.520;2023-05-10T03:24:24;155819.19;;;6.50
60936;BMP280;46804;51.786;19.520;2023-05-10T03:28:28;155829.44;;;6.54
60936;BMP280;46804;51.786;19.520;2023-05-10T03:32:29;155819.19;;;6.50
60936;BMP280;46804;51.786;19.520;2023-05-10T03:36:32;155838.41;;;6.57
60936;BMP280;46804;51.786;19.520;2023-05-10T03:40:33;155858.84;;;6.65
60936;BMP280;46804;51.786;19.520;2023-05-10T03:44:33;155862.72;;;6.67
60936;BMP280;46804;51.786;19.520;2023-05-10T03:48:34;155887.00;;;6.76
60936;BMP280;46804;51.786;19.520;2023-05-10T03:52:35;155896.00;;;6.79
60936;BMP280;46804;51.786;19.520;2023-05-10T03:56:36;155926.69;;;6.91
60936;BMP280;46804;51.786;19.520;2023-05-10T04:00:36;155934.38;;;6.94
60936;BMP280;46804;51.786;19.520;2023-05-10T04:04:37;155939.50;;;6.96
60936;BMP280;46804;51.786;19.520;2023-05-10T04:08:38;155968.94;;;7.08
60936;BMP280;46804;51.786;19.520;2023-05-10T04:12:40;156008.63;;;7.23
60936;BMP280;46804;51.786;19.520;2023-05-10T04:16:41;156022.66;;;7.28
60936;BMP280;46804;51.786;19.520;2023-05-10T04:20:42;156050.84;;;7.39
60936;BMP280;46804;51.786;19.520;2023-05-10T04:24:42;156073.88;;;7.48
60936;BMP280;46804;51.786;19.520;2023-05-10T04:28:43;156099.50;;;7.58
60936;BMP280;46804;51.786;19.520;2023-05-10T04:32:44;156109.75;;;7.62
60936;BMP280;46804;51.786;19.520;2023-05-10T04:36:45;156134.06;;;7.71
60936;BMP280;46804;51.786;19.520;2023-05-10T04:40:45;156177.63;;;7.88
60936;BMP280;46804;51.786;19.520;2023-05-10T04:44:46;156209.59;;;8.00
60936;BMP280;46804;51.786;19.520;2023-05-10T04:48:47;156248.09;;;8.15
60936;BMP280;46804;51.786;19.520;2023-05-10T04:52:48;156290.41;;;8.31
60936;BMP280;46804;51.786;19.520;2023-05-10T04:56:48;156324.97;;;8.45
60936;BMP280;46804;51.786;19.520;2023-05-10T05:00:49;156374.97;;;8.64
60936;BMP280;46804;51.786;19.520;2023-05-10T05:04:50;156417.22;;;8.80
60936;BMP280;46804;51.786;19.520;2023-05-10T05:08:51;156469.75;;;9.00
60936;BMP280;46804;51.786;19.520;2023-05-10T05:12:52;156513.38;;;9.17
60936;BMP280;46804;51.786;19.520;2023-05-10T05:16:53;156569.78;;;9.39
60936;BMP280;46804;51.786;19.520;2023-05-10T05:20:53;156628.78;;;9.61
60936;BMP280;46804;51.786;19.520;2023-05-10T05:24:55;156669.81;;;9.77
60936;BMP280;46804;51.786;19.520;2023-05-10T05:28:56;156680.09;;;9.81
60936;BMP280;46804;51.786;19.520;2023-05-10T05:32:57;156730.13;;;10.00
60936;BMP280;46804;51.786;19.520;2023-05-10T05:36:58;156760.94;;;10.12
60936;BMP280;46804;51.786;19.520;2023-05-10T05:40:58;156781.44;;;10.20
60936;BMP280;46804;51.786;19.520;2023-05-10T05:44:59;156821.25;;;10.35
60936;BMP280;46804;51.786;19.520;2023-05-10T05:49:00;156850.75;;;10.47
60936;BMP280;46804;51.786;19.520;2023-05-10T05:53:00;156887.94;;;10.61
60936;BMP280;46804;51.786;19.520;2023-05-10T05:57:01;156971.38;;;10.93
60936;BMP280;46804;51.786;19.520;2023-05-10T06:01:02;157089.50;;;11.38
60936;BMP280;46804;51.786;19.520;2023-05-10T06:05:04;157171.72;;;11.70
60936;BMP280;46804;51.786;19.520;2023-05-10T06:09:05;157250.09;;;12.00
60936;BMP280;46804;51.786;19.520;2023-05-10T06:13:05;157244.94;;;11.98
60936;BMP280;46804;51.786;19.520;2023-05-10T06:17:06;157309.22;;;12.22
60936;BMP280;46804;51.786;19.520;2023-05-10T06:21:07;157322.03;;;12.27
60936;BMP280;46804;51.786;19.520;2023-05-10T06:25:08;157395.31;;;12.55
60936;BMP280;46804;51.786;19.520;2023-05-10T06:29:09;157420.97;;;12.65
60936;BMP280;46804;51.786;19.520;2023-05-10T06:33:10;157495.56;;;12.94
60936;BMP280;46804;51.786;19.520;2023-05-10T06:37:10;157482.75;;;12.89
60936;BMP280;46804;51.786;19.520;2023-05-10T06:41:11;157662.78;;;13.58
60936;BMP280;46804;51.786;19.520;2023-05-10T06:45:13;157594.59;;;13.32
60936;BMP280;46804;51.786;19.520;2023-05-10T06:49:13;157660.16;;;13.57
60936;BMP280;46804;51.786;19.520;2023-05-10T06:53:14;157922.72;;;14.58
60936;BMP280;46804;51.786;19.520;2023-05-10T06:57:15;157900.84;;;14.49
60936;BMP280;46804;51.786;19.520;2023-05-10T07:01:16;157850.63;;;14.30
60936;BMP280;46804;51.786;19.520;2023-05-10T07:05:18;157962.63;;;14.73
60936;BMP280;46804;51.786;19.520;2023-05-10T07:09:19;158026.97;;;14.97
60936;BMP280;46804;51.786;19.520;2023-05-10T07:13:19;158160.97;;;15.49
60936;BMP280;46804;51.786;19.520;2023-05-10T07:17:20;158212.50;;;15.68
60936;BMP280;46804;51.786;19.520;2023-05-10T07:21:21;158155.81;;;15.47
60936;BMP280;46804;51.786;19.520;2023-05-10T07:25:24;158220.19;;;15.71
60936;BMP280;46804;51.786;19.520;2023-05-10T07:29:25;158167.41;;;15.51
60936;BMP280;46804;51.786;19.520;2023-05-10T07:33:26;158427.66;;;16.51
60936;BMP280;46804;51.786;19.520;2023-05-10T07:37:26;158547.59;;;16.97
60936;BMP280;46804;51.786;19.520;2023-05-10T07:41:27;158584.94;;;17.11
60936;BMP280;46804;51.786;19.520;2023-05-10T07:45:28;158503.75;;;16.80
60936;BMP280;46804;51.786;19.520;2023-05-10T07:49:29;158662.41;;;17.40
60936;BMP280;46804;51.786;19.520;2023-05-10T07:53:29;158730.75;;;17.67
60936;BMP280;46804;51.786;19.520;2023-05-10T07:57:30;158760.41;;;17.78
60936;BMP280;46804;51.786;19.520;2023-05-10T08:01:31;158565.63;;;17.03
60936;BMP280;46804;51.786;19.520;2023-05-10T08:05:33;158738.47;;;17.69
60936;BMP280;46804;51.786;19.520;2023-05-10T08:09:34;158823.59;;;18.02
60936;BMP280;46804;51.786;19.520;2023-05-10T08:13:35;158957.88;;;18.53
60936;BMP280;46804;51.786;19.520;2023-05-10T08:17:35;158711.38;;;17.59
60936;BMP280;46804;51.786;19.520;2023-05-10T08:21:36;158725.59;;;17.65
60936;BMP280;46804;51.786;19.520;2023-05-10T08:25:37;158921.72;;;18.39
60936;BMP280;46804;51.786;19.520;2023-05-10T08:29:38;159040.47;;;18.85
60936;BMP280;46804;51.786;19.520;2023-05-10T08:33:39;159098.59;;;19.07
60936;BMP280;46804;51.786;19.520;2023-05-10T08:37:39;159061.13;;;18.93
60936;BMP280;46804;51.786;19.520;2023-05-10T08:41:43;158932.06;;;18.43
60936;BMP280;46804;51.786;19.520;2023-05-10T08:45:45;159134.78;;;19.21
60936;BMP280;46804;51.786;19.520;2023-05-10T08:49:47;159081.81;;;19.01
60936;BMP280;46804;51.786;19.520;2023-05-10T08:53:52;158874.00;;;18.21
60936;BMP280;46804;51.786;19.520;2023-05-10T08:57:53;159090.88;;;19.04
60936;BMP280;46804;51.786;19.520;2023-05-10T09:01:55;159138.63;;;19.22
60936;BMP280;46804;51.786;19.520;2023-05-10T09:05:58;159220.00;;;19.53
60936;BMP280;46804;51.786;19.520;2023-05-10T09:09:59;159605.13;;;21.00
60936;BMP280;46804;51.786;19.520;2023-05-10T09:14:00;159562.50;;;20.84
60936;BMP280;46804;51.786;19.520;2023-05-10T09:18:01;159556.03;;;20.81
60936;BMP280;46804;51.786;19.520;2023-05-10T09:22:02;159389.25;;;20.18
60936;BMP280;46804;51.786;19.520;2023-05-10T09:26:07;159430.63;;;20.34
60936;BMP280;46804;51.786;19.520;2023-05-10T09:30:08;159602.56;;;20.99
60936;BMP280;46804;51.786;19.520;2023-05-10T09:34:09;159664.63;;;21.23
60936;BMP280;46804;51.786;19.520;2023-05-10T09:38:10;159625.84;;;21.08
60936;BMP280;46804;51.786;19.520;2023-05-10T09:42:11;159607.75;;;21.01
60936;BMP280;46804;51.786;19.520;2023-05-10T09:46:13;159637.47;;;21.12
60936;BMP280;46804;51.786;19.520;2023-05-10T09:50:14;159831.47;;;21.86
60936;BMP280;46804;51.786;19.520;2023-05-10T09:54:16;159836.66;;;21.88
60936;BMP280;46804;51.786;19.520;2023-05-10T09:58:16;160007.47;;;22.53
60936;BMP280;46804;51.786;19.520;2023-05-10T10:02:17;159771.97;;;21.64
60936;BMP280;46804;51.786;19.520;2023-05-10T10:06:20;159967.38;;;22.38
60936;BMP280;46804;51.786;19.520;2023-05-10T10:10:21;159715.06;;;21.42
60936;BMP280;46804;51.786;19.520;2023-05-10T10:14:23;159406.03;;;20.24
60936;BMP280;46804;51.786;19.520;2023-05-10T10:18:24;159725.41;;;21.46
60936;BMP280;46804;51.786;19.520;2023-05-10T10:22:27;160012.59;;;22.55
60936;BMP280;46804;51.786;19.520;2023-05-10T10:26:28;160371.31;;;23.92
60936;BMP280;46804;51.786;19.520;2023-05-10T10:30:40;159843.13;;;21.91
60936;BMP280;46804;51.786;19.520;2023-05-10T10:34:42;160136.91;;;23.03
60936;BMP280;46804;51.786;19.520;2023-05-10T10:42:47;160351.91;;;23.85
60936;BMP280;46804;51.786;19.520;2023-05-10T10:47:07;160236.63;;;23.41
60936;BMP280;46804;51.786;19.520;2023-05-10T10:51:13;160099.41;;;22.88
60936;BMP280;46804;51.786;19.520;2023-05-10T10:55:18;160332.44;;;23.77
60936;BMP280;46804;51.786;19.520;2023-05-10T10:59:29;160360.94;;;23.88
60936;BMP280;46804;51.786;19.520;2023-05-10T11:03:29;160551.44;;;24.60
60936;BMP280;46804;51.786;19.520;2023-05-10T11:07:30;160094.22;;;22.86
60936;BMP280;46804;51.786;19.520;2023-05-10T11:11:31;160258.63;;;23.49
60936;BMP280;46804;51.786;19.520;2023-05-10T11:15:36;159759.03;;;21.59
60936;BMP280;46804;51.786;19.520;2023-05-10T11:19:37;159893.56;;;22.10
60936;BMP280;46804;51.786;19.520;2023-05-10T11:27:41;159479.69;;;20.52
60936;BMP280;46804;51.786;19.520;2023-05-10T11:31:43;159609.03;;;21.02
60936;BMP280;46804;51.786;19.520;2023-05-10T11:35:45;159938.91;;;22.27
60936;BMP280;46804;51.786;19.520;2023-05-10T11:39:46;160261.19;;;23.50
60936;BMP280;46804;51.786;19.520;2023-05-10T11:43:54;160307.84;;;23.68
60936;BMP280;46804;51.786;19.520;2023-05-10T11:47:56;160282.00;;;23.58
60936;BMP280;46804;51.786;19.520;2023-05-10T11:52:07;160385.56;;;23.97
60936;BMP280;46804;51.786;19.520;2023-05-10T11:56:09;160147.28;;;23.07
60936;BMP280;46804;51.786;19.520;2023-05-10T12:00:11;160034.63;;;22.64
60936;BMP280;46804;51.786;19.520;2023-05-10T12:04:11;160310.47;;;23.69
60936;BMP280;46804;51.786;19.520;2023-05-10T12:08:21;160116.22;;;22.95
60936;BMP280;46804;51.786;19.520;2023-05-10T12:12:22;160109.72;;;22.92
60936;BMP280;46804;51.786;19.520;2023-05-10T12:16:24;160214.59;;;23.32
60936;BMP280;46804;51.786;19.520;2023-05-10T12:20:27;160367.44;;;23.90
60936;BMP280;46804;51.786;19.520;2023-05-10T12:24:28;160403.69;;;24.04
60936;BMP280;46804;51.786;19.520;2023-05-10T12:28:30;160211.97;;;23.31
60936;BMP280;46804;51.786;19.520;2023-05-10T12:32:38;159796.56;;;21.73
60936;BMP280;46804;51.786;19.520;2023-05-10T12:36:39;159746.13;;;21.54
60936;BMP280;46804;51.786;19.520;2023-05-10T12:40:40;159885.78;;;22.07
60936;BMP280;46804;51.786;19.520;2023-05-10T12:44:41;160222.34;;;23.35
60936;BMP280;46804;51.786;19.520;2023-05-10T12:48:43;160003.59;;;22.52
60936;BMP280;46804;51.786;19.520;2023-05-10T12:52:44;160116.22;;;22.95
60936;BMP280;46804;51.786;19.520;2023-05-10T12:56:44;160367.44;;;23.90
60936;BMP280;46804;51.786;19.520;2023-05-10T13:00:45;160512.56;;;24.46
60936;BMP280;46804;51.786;19.520;2023-05-10T13:04:47;160486.63;;;24.36
60936;BMP280;46804;51.786;19.520;2023-05-10T13:08:48;160554.00;;;24.61
60936;BMP280;46804;51.786;19.520;2023-05-10T13:12:48;160188.69;;;23.22
60936;BMP280;46804;51.786;19.520;2023-05-10T13:16:49;160122.69;;;22.97
60936;BMP280;46804;51.786;19.520;2023-05-10T13:20:50;160038.50;;;22.65
60936;BMP280;46804;51.786;19.520;2023-05-10T13:24:50;160026.88;;;22.61
60936;BMP280;46804;51.786;19.520;2023-05-10T13:28:51;159773.28;;;21.64
60936;BMP280;46804;51.786;19.520;2023-05-10T13:32:52;159962.19;;;22.36
60936;BMP280;46804;51.786;19.520;2023-05-10T13:36:53;159840.50;;;21.90
60936;BMP280;46804;51.786;19.520;2023-05-10T13:40:54;160146.00;;;23.06
60936;BMP280;46804;51.786;19.520;2023-05-10T13:44:55;160148.56;;;23.07
60936;BMP280;46804;51.786;19.520;2023-05-10T13:48:56;159884.50;;;22.07
60936;BMP280;46804;51.786;19.520;2023-05-10T13:52:57;160219.78;;;23.34
60936;BMP280;46804;51.786;19.520;2023-05-10T13:56:58;159976.41;;;22.42
60936;BMP280;46804;51.786;19.520;2023-05-10T14:00:59;159973.84;;;22.41
60936;BMP280;46804;51.786;19.520;2023-05-10T14:05:00;159689.19;;;21.32
60936;BMP280;46804;51.786;19.520;2023-05-10T14:09:01;159740.94;;;21.52
60936;BMP280;46804;51.786;19.520;2023-05-10T14:13:02;159523.72;;;20.69
60936;BMP280;46804;51.786;19.520;2023-05-10T14:17:03;159641.31;;;21.14
60936;BMP280;46804;51.786;19.520;2023-05-10T14:21:04;159702.16;;;21.37
60936;BMP280;46804;51.786;19.520;2023-05-10T14:25:05;159668.47;;;21.24
60936;BMP280;46804;51.786;19.520;2023-05-10T14:29:06;159486.16;;;20.55
60936;BMP280;46804;51.786;19.520;2023-05-10T14:33:07;159435.75;;;20.36
60936;BMP280;46804;51.786;19.520;2023-05-10T14:37:10;159459.06;;;20.44
60936;BMP280;46804;51.786;19.520;2023-05-10T14:41:11;159420.28;;;20.30
60936;BMP280;46804;51.786;19.520;2023-05-10T14:45:15;159425.47;;;20.32
60936;BMP280;46804;51.786;19.520;2023-05-10T14:49:15;159306.59;;;19.86
60936;BMP280;46804;51.786;19.520;2023-05-10T14:53:34;159320.78;;;19.92
60936;BMP280;46804;51.786;19.520;2023-05-10T14:57:35;159234.19;;;19.59
60936;BMP280;46804;51.786;19.520;2023-05-10T15:01:37;159156.69;;;19.29
60936;BMP280;46804;51.786;19.520;2023-05-10T15:05:38;159154.13;;;19.28
60936;BMP280;46804;51.786;19.520;2023-05-10T15:09:39;159115.38;;;19.13
60936;BMP280;46804;51.786;19.520;2023-05-10T15:13:40;158982.38;;;18.63
60936;BMP280;46804;51.786;19.520;2023-05-10T15:17:41;159053.38;;;18.90
60936;BMP280;46804;51.786;19.520;2023-05-10T15:21:42;158979.78;;;18.62
60936;BMP280;46804;51.786;19.520;2023-05-10T15:25:44;158907.53;;;18.34
60936;BMP280;46804;51.786;19.520;2023-05-10T15:29:45;158893.31;;;18.29
60936;BMP280;46804;51.786;19.520;2023-05-10T15:33:46;158895.94;;;18.30
60936;BMP280;46804;51.786;19.520;2023-05-10T15:37:47;158893.31;;;18.29
60936;BMP280;46804;51.786;19.520;2023-05-10T15:41:48;158877.88;;;18.23
60936;BMP280;46804;51.786;19.520;2023-05-10T15:45:49;158903.66;;;18.33
60936;BMP280;46804;51.786;19.520;2023-05-10T15:49:49;158801.69;;;17.94
60936;BMP280;46804;51.786;19.520;2023-05-10T15:53:50;158766.84;;;17.80
60936;BMP280;46804;51.786;19.520;2023-05-10T15:57:51;158756.53;;;17.76
60936;BMP280;46804;51.786;19.520;2023-05-10T16:01:52;158770.75;;;17.82
60936;BMP280;46804;51.786;19.520;2023-05-10T16:05:53;158725.59;;;17.65
60936;BMP280;46804;51.786;19.520;2023-05-10T16:09:54;158711.38;;;17.59
60936;BMP280;46804;51.786;19.520;2023-05-10T16:13:55;158661.06;;;17.40
60936;BMP280;46804;51.786;19.520;2023-05-10T16:17:55;158662.41;;;17.40
60936;BMP280;46804;51.786;19.520;2023-05-10T16:21:57;158652.06;;;17.36
60936;BMP280;46804;51.786;19.520;2023-05-10T16:25:58;158608.22;;;17.20
60936;BMP280;46804;51.786;19.520;2023-05-10T16:29:58;158588.84;;;17.12
60936;BMP280;46804;51.786;19.520;2023-05-10T16:33:59;158588.84;;;17.12
60936;BMP280;46804;51.786;19.520;2023-05-10T16:38:00;158550.16;;;16.98
60936;BMP280;46804;51.786;19.520;2023-05-10T16:42:00;158550.16;;;16.98
60936;BMP280;46804;51.786;19.520;2023-05-10T16:46:01;158508.91;;;16.82
60936;BMP280;46804;51.786;19.520;2023-05-10T16:50:03;158484.38;;;16.72
60936;BMP280;46804;51.786;19.520;2023-05-10T16:54:04;158454.75;;;16.61
60936;BMP280;46804;51.786;19.520;2023-05-10T16:58:05;158440.59;;;16.56
60936;BMP280;46804;51.786;19.520;2023-05-10T17:02:06;158414.78;;;16.46
60936;BMP280;46804;51.786;19.520;2023-05-10T17:06:07;158401.91;;;16.41
60936;BMP280;46804;51.786;19.520;2023-05-10T17:10:08;158386.44;;;16.35
60936;BMP280;46804;51.786;19.520;2023-05-10T17:14:09;158368.41;;;16.28
60936;BMP280;46804;51.786;19.520;2023-05-10T17:18:10;158336.16;;;16.16
60936;BMP280;46804;51.786;19.520;2023-05-10T17:22:11;158315.53;;;16.08
60936;BMP280;46804;51.786;19.520;2023-05-10T17:26:12;158287.19;;;15.97
60936;BMP280;46804;51.786;19.520;2023-05-10T17:30:13;158256.25;;;15.85
60936;BMP280;46804;51.786;19.520;2023-05-10T17:34:14;158240.81;;;15.79
60936;BMP280;46804;51.786;19.520;2023-05-10T17:38:15;158215.03;;;15.69
60936;BMP280;46804;51.786;19.520;2023-05-10T17:42:15;158166.06;;;15.51
60936;BMP280;46804;51.786;19.520;2023-05-10T17:46:18;158137.78;;;15.40
60936;BMP280;46804;51.786;19.520;2023-05-10T17:50:19;158108.13;;;15.28
60936;BMP280;46804;51.786;19.520;2023-05-10T17:54:19;158087.56;;;15.21
60936;BMP280;46804;51.786;19.520;2023-05-10T17:58:20;158052.75;;;15.07
60936;BMP280;46804;51.786;19.520;2023-05-10T18:02:21;158038.56;;;15.02
60936;BMP280;46804;51.786;19.520;2023-05-10T18:06:23;158007.69;;;14.90
60936;BMP280;46804;51.786;19.520;2023-05-10T18:10:23;157963.91;;;14.73
60936;BMP280;46804;51.786;19.520;2023-05-10T18:14:24;157942.00;;;14.65
60936;BMP280;46804;51.786;19.520;2023-05-10T18:18:27;157896.97;;;14.48
60936;BMP280;46804;51.786;19.520;2023-05-10T18:22:28;157873.81;;;14.39
60936;BMP280;46804;51.786;19.520;2023-05-10T18:26:29;157824.88;;;14.20
60936;BMP280;46804;51.786;19.520;2023-05-10T18:30:30;157791.47;;;14.07
60936;BMP280;46804;51.786;19.520;2023-05-10T18:34:30;157766.94;;;13.98
60936;BMP280;46804;51.786;19.520;2023-05-10T18:38:31;157733.50;;;13.85
60936;BMP280;46804;51.786;19.520;2023-05-10T18:42:32;157691.06;;;13.69
60936;BMP280;46804;51.786;19.520;2023-05-10T18:46:33;157653.75;;;13.55
60936;BMP280;46804;51.786;19.520;2023-05-10T18:50:35;157613.88;;;13.39
60936;BMP280;46804;51.786;19.520;2023-05-10T18:54:35;157584.31;;;13.28
60936;BMP280;46804;51.786;19.520;2023-05-10T18:58:36;157548.31;;;13.14
60936;BMP280;46804;51.786;19.520;2023-05-10T19:02:38;157507.16;;;12.98
60936;BMP280;46804;51.786;19.520;2023-05-10T19:06:39;157471.16;;;12.85
60936;BMP280;46804;51.786;19.520;2023-05-10T19:10:41;157472.44;;;12.85
60936;BMP280;46804;51.786;19.520;2023-05-10T19:14:42;157435.13;;;12.71
60936;BMP280;46804;51.786;19.520;2023-05-10T19:18:43;157397.84;;;12.56
60936;BMP280;46804;51.786;19.520;2023-05-10T19:22:44;157379.88;;;12.50
60936;BMP280;46804;51.786;19.520;2023-05-10T19:26:45;157345.16;;;12.36
60936;BMP280;46804;51.786;19.520;2023-05-10T19:30:46;157309.22;;;12.22
60936;BMP280;46804;51.786;19.520;2023-05-10T19:34:49;157270.66;;;12.08
60936;BMP280;46804;51.786;19.520;2023-05-10T19:38:49;157250.09;;;12.00
60936;BMP280;46804;51.786;19.520;2023-05-10T19:42:50;157265.50;;;12.06
60936;BMP280;46804;51.786;19.520;2023-05-10T19:46:51;157205.13;;;11.83
60936;BMP280;46804;51.786;19.520;2023-05-10T19:50:52;157173.03;;;11.70
60936;BMP280;46804;51.786;19.520;2023-05-10T19:54:53;157134.50;;;11.55
60936;BMP280;46804;51.786;19.520;2023-05-10T19:58:54;157121.69;;;11.51
60936;BMP280;46804;51.786;19.520;2023-05-10T20:02:55;157108.78;;;11.46
60936;BMP280;46804;51.786;19.520;2023-05-10T20:06:56;157076.66;;;11.33
60936;BMP280;46804;51.786;19.520;2023-05-10T20:10:57;157052.25;;;11.24
60936;BMP280;46804;51.786;19.520;2023-05-10T20:15:00;157050.97;;;11.23
60936;BMP280;46804;51.786;19.520;2023-05-10T20:19:00;157009.91;;;11.08
60936;BMP280;46804;51.786;19.520;2023-05-10T20:23:02;157027.88;;;11.15
60936;BMP280;46804;51.786;19.520;2023-05-10T20:27:03;157012.44;;;11.09
60936;BMP280;46804;51.786;19.520;2023-05-10T20:31:04;156989.34;;;11.00
60936;BMP280;46804;51.786;19.520;2023-05-10T20:35:05;156985.53;;;10.98
60936;BMP280;46804;51.786;19.520;2023-05-10T20:39:06;156982.94;;;10.97
60936;BMP280;46804;51.786;19.520;2023-05-10T20:43:07;156958.56;;;10.88
60936;BMP280;46804;51.786;19.520;2023-05-10T20:47:07;156950.81;;;10.85
60936;BMP280;46804;51.786;19.520;2023-05-10T20:51:08;156947.00;;;10.84
60936;BMP280;46804;51.786;19.520;2023-05-10T20:55:09;156930.31;;;10.77
60936;BMP280;46804;51.786;19.520;2023-05-10T20:59:10;156898.22;;;10.65
60936;BMP280;46804;51.786;19.520;2023-05-10T21:03:12;156895.66;;;10.64
60936;BMP280;46804;51.786;19.520;2023-05-10T21:07:14;156894.34;;;10.63
60936;BMP280;46804;51.786;19.520;2023-05-10T21:11:14;156873.84;;;10.55
60936;BMP280;46804;51.786;19.520;2023-05-10T21:15:15;156875.13;;;10.56
60936;BMP280;46804;51.786;19.520;2023-05-10T21:19:17;156852.03;;;10.47
60936;BMP280;46804;51.786;19.520;2023-05-10T21:23:17;156846.88;;;10.45
60936;BMP280;46804;51.786;19.520;2023-05-10T21:27:18;156823.78;;;10.36
60936;BMP280;46804;51.786;19.520;2023-05-10T21:31:19;156836.63;;;10.41
60936;BMP280;46804;51.786;19.520;2023-05-10T21:35:20;156834.06;;;10.40
60936;BMP280;46804;51.786;19.520;2023-05-10T21:39:20;156818.66;;;10.34
60936;BMP280;46804;51.786;19.520;2023-05-10T21:43:21;156810.97;;;10.31
60936;BMP280;46804;51.786;19.520;2023-05-10T21:47:22;156800.69;;;10.27
60936;BMP280;46804;51.786;19.520;2023-05-10T21:51:22;156793.03;;;10.24
60936;BMP280;46804;51.786;19.520;2023-05-10T21:55:23;156775.03;;;10.17
60936;BMP280;46804;51.786;19.520;2023-05-10T21:59:24;156772.47;;;10.17
60936;BMP280;46804;51.786;19.520;2023-05-10T22:03:25;156763.47;;;10.13
60936;BMP280;46804;51.786;19.520;2023-05-10T22:07:25;156744.25;;;10.06
60936;BMP280;46804;51.786;19.520;2023-05-10T22:11:26;156732.72;;;10.01
60936;BMP280;46804;51.786;19.520;2023-05-10T22:15:27;156708.34;;;9.92
60936;BMP280;46804;51.786;19.520;2023-05-10T22:19:27;156700.56;;;9.89
60936;BMP280;46804;51.786;19.520;2023-05-10T22:23:28;156680.09;;;9.81
60936;BMP280;46804;51.786;19.520;2023-05-10T22:27:29;156671.09;;;9.78
60936;BMP280;46804;51.786;19.520;2023-05-10T22:31:30;156635.19;;;9.64
60936;BMP280;46804;51.786;19.520;2023-05-10T22:35:31;156628.78;;;9.61
60936;BMP280;46804;51.786;19.520;2023-05-10T22:39:31;156626.19;;;9.60
60936;BMP280;46804;51.786;19.520;2023-05-10T22:43:32;156610.78;;;9.54
60936;BMP280;46804;51.786;19.520;2023-05-10T22:47:33;156597.97;;;9.49
60936;BMP280;46804;51.786;19.520;2023-05-10T22:51:34;156582.56;;;9.44
60936;BMP280;46804;51.786;19.520;2023-05-10T22:55:34;156583.91;;;9.44
60936;BMP280;46804;51.786;19.520;2023-05-10T22:59:36;156581.31;;;9.43